Pagrindinis puslapis
METAR-TAF:

METAR-TAF

Oro uostai :

Tarvizijus, Italija

platuma: 46-30N, ilguma: 013-35E, Aukštis: 777 m

Dabartinis oras

Ataskaita buvo paskelbta 10 valandos ir 15 minutes, ne 17:55 UTC
Ramus vėjas
Temperatūra 1°C
Drėgmė 86%
Slėgis 1021 hPa
Matomumas 10 km arba daugiau
Išsisklaidę debesys ne aukštis 3000 ft

METAR: LIVO 171755Z 00000KT 9999 SCT030 01/M01 Q1021 RMK SCT VIS MIN 9999

Laikas: 05:10 (04:10 UTC)


TAF: trūkstamas

Orai ataskaitas ir orų prognozės (METAR, TAF).

turimą stotys yra geltonos ir raudonos taškus žemėlapyje.

Perkelti pele per norėdami pamatyti stoties vardą.

Tada spustelėkite, norėdami matyti oro stebėjimo ir prognozės.

Norėdami pakeisti žemėlapį: spustelėkite ant žalios mygtukų su juodo kryžiaus žemyn,; žalią mygtuką su brūkšneliu, jei norite nutolinti; arba žalių rodyklių gretimoms žemėlapius.


METAR-TAF: